sensor_id;sensor_type;location;lat;lon;timestamp;temperature;humidity
1429;DHT22;708;51.442;7.016;2023-05-10T00:01:58;15.80;99.90
1429;DHT22;708;51.442;7.016;2023-05-10T00:04:26;15.70;99.90
1429;DHT22;708;51.442;7.016;2023-05-10T00:06:53;15.70;99.90
1429;DHT22;708;51.442;7.016;2023-05-10T00:09:20;15.70;99.90
1429;DHT22;708;51.442;7.016;2023-05-10T00:11:47;15.70;99.90
1429;DHT22;708;51.442;7.016;2023-05-10T00:14:15;15.60;99.90
1429;DHT22;708;51.442;7.016;2023-05-10T00:16:42;15.60;99.90
1429;DHT22;708;51.442;7.016;2023-05-10T00:19:08;15.70;99.90
1429;DHT22;708;51.442;7.016;2023-05-10T00:21:35;15.70;99.90
1429;DHT22;708;51.442;7.016;2023-05-10T00:24:02;15.70;99.90
1429;DHT22;708;51.442;7.016;2023-05-10T00:26:29;15.60;99.90
1429;DHT22;708;51.442;7.016;2023-05-10T00:28:56;15.60;99.90
1429;DHT22;708;51.442;7.016;2023-05-10T00:31:25;15.70;99.90
1429;DHT22;708;51.442;7.016;2023-05-10T00:33:52;15.70;99.90
1429;DHT22;708;51.442;7.016;2023-05-10T00:36:18;15.70;99.90
1429;DHT22;708;51.442;7.016;2023-05-10T00:38:46;15.70;99.90
1429;DHT22;708;51.442;7.016;2023-05-10T00:41:13;15.80;99.90
1429;DHT22;708;51.442;7.016;2023-05-10T00:43:39;15.80;99.90
1429;DHT22;708;51.442;7.016;2023-05-10T00:46:06;15.80;99.90
1429;DHT22;708;51.442;7.016;2023-05-10T00:48:35;15.80;99.90
1429;DHT22;708;51.442;7.016;2023-05-10T00:51:02;15.80;99.90
1429;DHT22;708;51.442;7.016;2023-05-10T00:53:31;15.80;99.90
1429;DHT22;708;51.442;7.016;2023-05-10T00:55:58;15.80;99.90
1429;DHT22;708;51.442;7.016;2023-05-10T00:58:25;15.80;99.90
1429;DHT22;708;51.442;7.016;2023-05-10T01:00:54;15.70;99.90
1429;DHT22;708;51.442;7.016;2023-05-10T01:03:21;15.70;99.90
1429;DHT22;708;51.442;7.016;2023-05-10T01:05:49;15.60;99.90
1429;DHT22;708;51.442;7.016;2023-05-10T01:08:16;15.60;99.90
1429;DHT22;708;51.442;7.016;2023-05-10T01:10:44;15.60;99.90
1429;DHT22;708;51.442;7.016;2023-05-10T01:13:11;15.50;99.90
1429;DHT22;708;51.442;7.016;2023-05-10T01:15:41;15.40;99.90
1429;DHT22;708;51.442;7.016;2023-05-10T01:18:08;15.40;99.90
1429;DHT22;708;51.442;7.016;2023-05-10T01:20:43;15.30;99.90
1429;DHT22;708;51.442;7.016;2023-05-10T01:23:35;15.30;99.90
1429;DHT22;708;51.442;7.016;2023-05-10T01:26:29;15.20;99.90
1429;DHT22;708;51.442;7.016;2023-05-10T01:29:36;15.10;99.90
1429;DHT22;708;51.442;7.016;2023-05-10T01:32:23;15.10;99.90
1429;DHT22;708;51.442;7.016;2023-05-10T01:34:57;15.10;99.90
1429;DHT22;708;51.442;7.016;2023-05-10T01:37:33;15.20;99.90
1429;DHT22;708;51.442;7.016;2023-05-10T01:40:10;15.10;99.90
1429;DHT22;708;51.442;7.016;2023-05-10T01:42:44;15.20;99.90
1429;DHT22;708;51.442;7.016;2023-05-10T01:45:20;15.20;99.90
1429;DHT22;708;51.442;7.016;2023-05-10T01:47:54;15.20;99.90
1429;DHT22;708;51.442;7.016;2023-05-10T01:50:27;15.30;99.90
1429;DHT22;708;51.442;7.016;2023-05-10T01:52:56;15.30;99.90
1429;DHT22;708;51.442;7.016;2023-05-10T01:55:25;15.30;99.90
1429;DHT22;708;51.442;7.016;2023-05-10T01:58:01;15.20;99.90
1429;DHT22;708;51.442;7.016;2023-05-10T02:00:29;15.30;99.90
1429;DHT22;708;51.442;7.016;2023-05-10T02:03:00;15.30;99.90
1429;DHT22;708;51.442;7.016;2023-05-10T02:05:29;15.20;99.90
1429;DHT22;708;51.442;7.016;2023-05-10T02:07:59;15.20;99.90
1429;DHT22;708;51.442;7.016;2023-05-10T02:10:30;15.20;99.90
1429;DHT22;708;51.442;7.016;2023-05-10T02:12:58;15.20;99.90
1429;DHT22;708;51.442;7.016;2023-05-10T02:15:26;15.20;99.90
1429;DHT22;708;51.442;7.016;2023-05-10T02:17:55;15.20;99.90
1429;DHT22;708;51.442;7.016;2023-05-10T02:20:24;15.20;99.90
1429;DHT22;708;51.442;7.016;2023-05-10T02:22:53;15.20;99.90
1429;DHT22;708;51.442;7.016;2023-05-10T02:25:22;15.20;99.90
1429;DHT22;708;51.442;7.016;2023-05-10T02:27:51;15.20;99.90
1429;DHT22;708;51.442;7.016;2023-05-10T02:30:21;15.20;99.90
1429;DHT22;708;51.442;7.016;2023-05-10T02:32:49;15.20;99.90
1429;DHT22;708;51.442;7.016;2023-05-10T02:35:16;15.20;99.90
1429;DHT22;708;51.442;7.016;2023-05-10T02:37:45;15.20;99.90
1429;DHT22;708;51.442;7.016;2023-05-10T02:40:14;15.20;99.90
1429;DHT22;708;51.442;7.016;2023-05-10T02:42:42;15.20;99.90
1429;DHT22;708;51.442;7.016;2023-05-10T02:45:12;15.10;99.90
1429;DHT22;708;51.442;7.016;2023-05-10T02:47:41;15.10;99.90
1429;DHT22;708;51.442;7.016;2023-05-10T02:50:09;15.10;99.90
1429;DHT22;708;51.442;7.016;2023-05-10T02:52:40;15.10;99.90
1429;DHT22;708;51.442;7.016;2023-05-10T02:55:12;15.10;99.90
1429;DHT22;708;51.442;7.016;2023-05-10T02:57:43;15.10;99.90
1429;DHT22;708;51.442;7.016;2023-05-10T03:00:11;15.00;99.90
1429;DHT22;708;51.442;7.016;2023-05-10T03:02:38;15.10;99.90
1429;DHT22;708;51.442;7.016;2023-05-10T03:05:05;15.10;99.90
1429;DHT22;708;51.442;7.016;2023-05-10T03:07:32;15.10;99.90
1429;DHT22;708;51.442;7.016;2023-05-10T03:10:00;15.10;99.90
1429;DHT22;708;51.442;7.016;2023-05-10T03:12:39;15.10;99.90
1429;DHT22;708;51.442;7.016;2023-05-10T03:15:13;15.20;99.90
1429;DHT22;708;51.442;7.016;2023-05-10T03:17:47;15.20;99.90
1429;DHT22;708;51.442;7.016;2023-05-10T03:20:20;15.20;99.90
1429;DHT22;708;51.442;7.016;2023-05-10T03:22:51;15.20;99.90
1429;DHT22;708;51.442;7.016;2023-05-10T03:25:21;15.20;99.90
1429;DHT22;708;51.442;7.016;2023-05-10T03:27:49;15.20;99.90
1429;DHT22;708;51.442;7.016;2023-05-10T03:30:17;15.20;99.90
1429;DHT22;708;51.442;7.016;2023-05-10T03:32:44;15.20;99.90
1429;DHT22;708;51.442;7.016;2023-05-10T03:35:12;15.20;99.90
1429;DHT22;708;51.442;7.016;2023-05-10T03:37:39;15.20;99.90
1429;DHT22;708;51.442;7.016;2023-05-10T03:40:07;15.30;99.90
1429;DHT22;708;51.442;7.016;2023-05-10T03:42:34;15.30;99.90
1429;DHT22;708;51.442;7.016;2023-05-10T03:45:03;15.30;99.90
1429;DHT22;708;51.442;7.016;2023-05-10T03:47:29;15.30;99.90
1429;DHT22;708;51.442;7.016;2023-05-10T03:49:57;15.30;99.90
1429;DHT22;708;51.442;7.016;2023-05-10T03:52:23;15.30;99.90
1429;DHT22;708;51.442;7.016;2023-05-10T03:54:50;15.30;99.90
1429;DHT22;708;51.442;7.016;2023-05-10T03:57:17;15.30;99.90
1429;DHT22;708;51.442;7.016;2023-05-10T03:59:44;15.40;99.90
1429;DHT22;708;51.442;7.016;2023-05-10T04:02:12;15.40;99.90
1429;DHT22;708;51.442;7.016;2023-05-10T04:04:39;15.40;99.90
1429;DHT22;708;51.442;7.016;2023-05-10T04:07:06;15.40;99.90
1429;DHT22;708;51.442;7.016;2023-05-10T04:09:33;15.50;99.90
1429;DHT22;708;51.442;7.016;2023-05-10T04:11:59;15.50;99.90
1429;DHT22;708;51.442;7.016;2023-05-10T04:14:27;15.40;99.90
1429;DHT22;708;51.442;7.016;2023-05-10T04:16:54;15.50;99.90
1429;DHT22;708;51.442;7.016;2023-05-10T04:19:22;15.50;99.90
1429;DHT22;708;51.442;7.016;2023-05-10T04:21:49;15.50;99.90
1429;DHT22;708;51.442;7.016;2023-05-10T04:24:16;15.50;99.90
1429;DHT22;708;51.442;7.016;2023-05-10T04:26:42;15.50;99.90
1429;DHT22;708;51.442;7.016;2023-05-10T04:29:09;15.50;99.90
1429;DHT22;708;51.442;7.016;2023-05-10T04:31:36;15.60;99.90
1429;DHT22;708;51.442;7.016;2023-05-10T04:34:03;15.60;99.90
1429;DHT22;708;51.442;7.016;2023-05-10T04:36:31;15.60;99.90
1429;DHT22;708;51.442;7.016;2023-05-10T04:39:00;15.60;99.90
1429;DHT22;708;51.442;7.016;2023-05-10T04:41:28;15.60;99.90
1429;DHT22;708;51.442;7.016;2023-05-10T04:43:55;15.60;99.90
1429;DHT22;708;51.442;7.016;2023-05-10T04:46:21;15.60;99.90
1429;DHT22;708;51.442;7.016;2023-05-10T04:48:48;15.60;99.90
1429;DHT22;708;51.442;7.016;2023-05-10T04:51:15;15.70;99.90
1429;DHT22;708;51.442;7.016;2023-05-10T04:53:43;15.70;99.90
1429;DHT22;708;51.442;7.016;2023-05-10T04:56:10;15.70;99.90
1429;DHT22;708;51.442;7.016;2023-05-10T04:58:36;15.70;99.90
1429;DHT22;708;51.442;7.016;2023-05-10T05:01:06;15.70;99.90
1429;DHT22;708;51.442;7.016;2023-05-10T05:03:33;15.70;99.90
1429;DHT22;708;51.442;7.016;2023-05-10T05:06:00;15.70;99.90
1429;DHT22;708;51.442;7.016;2023-05-10T05:08:27;15.80;99.90
1429;DHT22;708;51.442;7.016;2023-05-10T05:10:55;15.80;99.90
1429;DHT22;708;51.442;7.016;2023-05-10T05:13:22;15.90;99.90
1429;DHT22;708;51.442;7.016;2023-05-10T05:15:49;15.90;99.90
1429;DHT22;708;51.442;7.016;2023-05-10T05:18:16;15.90;99.90
1429;DHT22;708;51.442;7.016;2023-05-10T05:20:42;15.80;99.90
1429;DHT22;708;51.442;7.016;2023-05-10T05:23:09;15.90;99.90
1429;DHT22;708;51.442;7.016;2023-05-10T05:25:36;15.90;99.90
1429;DHT22;708;51.442;7.016;2023-05-10T05:28:04;16.00;99.90
1429;DHT22;708;51.442;7.016;2023-05-10T05:30:31;16.00;99.90
1429;DHT22;708;51.442;7.016;2023-05-10T05:32:58;16.10;99.90
1429;DHT22;708;51.442;7.016;2023-05-10T05:35:24;16.10;99.90
1429;DHT22;708;51.442;7.016;2023-05-10T05:37:51;16.20;99.90
1429;DHT22;708;51.442;7.016;2023-05-10T05:40:18;16.30;99.90
1429;DHT22;708;51.442;7.016;2023-05-10T05:42:45;16.30;96.10
1429;DHT22;708;51.442;7.016;2023-05-10T05:45:13;16.40;91.10
1429;DHT22;708;51.442;7.016;2023-05-10T05:47:40;16.40;88.40
1429;DHT22;708;51.442;7.016;2023-05-10T05:50:08;16.50;76.80
1429;DHT22;708;51.442;7.016;2023-05-10T05:52:35;16.50;73.70
1429;DHT22;708;51.442;7.016;2023-05-10T05:55:02;16.50;64.10
1429;DHT22;708;51.442;7.016;2023-05-10T05:57:29;16.50;63.10
1429;DHT22;708;51.442;7.016;2023-05-10T05:59:55;16.50;61.90
1429;DHT22;708;51.442;7.016;2023-05-10T06:02:24;16.50;65.00
1429;DHT22;708;51.442;7.016;2023-05-10T06:04:50;16.60;64.50
1429;DHT22;708;51.442;7.016;2023-05-10T06:07:17;16.60;63.30
1429;DHT22;708;51.442;7.016;2023-05-10T06:09:44;16.70;60.90
1429;DHT22;708;51.442;7.016;2023-05-10T06:12:10;16.80;46.40
1429;DHT22;708;51.442;7.016;2023-05-10T06:14:38;16.90;45.40
1429;DHT22;708;51.442;7.016;2023-05-10T06:17:04;17.10;30.30
1429;DHT22;708;51.442;7.016;2023-05-10T06:19:33;17.30;24.10
1429;DHT22;708;51.442;7.016;2023-05-10T06:22:00;17.50;6.80
1429;DHT22;708;51.442;7.016;2023-05-10T06:24:27;17.70;1.00
1429;DHT22;708;51.442;7.016;2023-05-10T06:26:53;17.80;1.00
1429;DHT22;708;51.442;7.016;2023-05-10T06:29:20;17.90;1.00
1429;DHT22;708;51.442;7.016;2023-05-10T06:31:47;17.90;1.00
1429;DHT22;708;51.442;7.016;2023-05-10T06:34:14;17.90;1.00
1429;DHT22;708;51.442;7.016;2023-05-10T06:36:42;18.00;1.00
1429;DHT22;708;51.442;7.016;2023-05-10T06:39:09;18.10;1.00
1429;DHT22;708;51.442;7.016;2023-05-10T06:41:37;18.20;1.00
1429;DHT22;708;51.442;7.016;2023-05-10T06:44:04;18.30;1.00
1429;DHT22;708;51.442;7.016;2023-05-10T06:46:30;18.30;1.00
1429;DHT22;708;51.442;7.016;2023-05-10T06:48:57;18.30;1.00
1429;DHT22;708;51.442;7.016;2023-05-10T06:51:24;18.30;1.00
1429;DHT22;708;51.442;7.016;2023-05-10T06:53:52;18.30;1.00
1429;DHT22;708;51.442;7.016;2023-05-10T06:56:19;18.40;1.00
1429;DHT22;708;51.442;7.016;2023-05-10T06:58:47;18.60;1.00
1429;DHT22;708;51.442;7.016;2023-05-10T07:01:14;18.70;1.00
1429;DHT22;708;51.442;7.016;2023-05-10T07:03:42;18.80;1.00
1429;DHT22;708;51.442;7.016;2023-05-10T07:06:08;19.00;1.00
1429;DHT22;708;51.442;7.016;2023-05-10T07:08:36;19.20;1.00
1429;DHT22;708;51.442;7.016;2023-05-10T07:11:05;19.40;1.00
1429;DHT22;708;51.442;7.016;2023-05-10T07:13:33;19.70;1.00
1429;DHT22;708;51.442;7.016;2023-05-10T07:16:00;20.20;1.00
1429;DHT22;708;51.442;7.016;2023-05-10T07:18:28;20.60;99.90
1429;DHT22;708;51.442;7.016;2023-05-10T07:20:56;21.00;99.90
1429;DHT22;708;51.442;7.016;2023-05-10T07:23:23;21.20;99.90
1429;DHT22;708;51.442;7.016;2023-05-10T07:25:50;21.30;62.40
1429;DHT22;708;51.442;7.016;2023-05-10T07:28:19;21.40;22.80
1429;DHT22;708;51.442;7.016;2023-05-10T07:30:46;21.50;24.90
1429;DHT22;708;51.442;7.016;2023-05-10T07:33:14;21.40;39.00
1429;DHT22;708;51.442;7.016;2023-05-10T07:35:41;21.30;87.50
1429;DHT22;708;51.442;7.016;2023-05-10T07:38:08;21.10;99.90
1429;DHT22;708;51.442;7.016;2023-05-10T07:40:36;21.30;99.90
1429;DHT22;708;51.442;7.016;2023-05-10T07:43:03;21.40;95.10
1429;DHT22;708;51.442;7.016;2023-05-10T07:45:31;21.50;22.50
1429;DHT22;708;51.442;7.016;2023-05-10T07:47:58;21.70;1.00
1429;DHT22;708;51.442;7.016;2023-05-10T07:50:25;21.50;99.90
1429;DHT22;708;51.442;7.016;2023-05-10T07:52:52;21.10;1.00
1429;DHT22;708;51.442;7.016;2023-05-10T07:55:19;20.60;99.90
1429;DHT22;708;51.442;7.016;2023-05-10T07:57:46;20.30;99.90
1429;DHT22;708;51.442;7.016;2023-05-10T08:00:17;19.90;99.90
1429;DHT22;708;51.442;7.016;2023-05-10T08:02:45;19.60;99.90
1429;DHT22;708;51.442;7.016;2023-05-10T08:05:12;19.40;1.00
1429;DHT22;708;51.442;7.016;2023-05-10T08:07:39;19.20;1.00
1429;DHT22;708;51.442;7.016;2023-05-10T08:10:08;19.00;1.00
1429;DHT22;708;51.442;7.016;2023-05-10T08:12:35;19.00;1.00
1429;DHT22;708;51.442;7.016;2023-05-10T08:15:02;19.00;1.00
1429;DHT22;708;51.442;7.016;2023-05-10T08:17:28;19.20;1.00
1429;DHT22;708;51.442;7.016;2023-05-10T08:19:57;19.30;1.00
1429;DHT22;708;51.442;7.016;2023-05-10T08:22:23;19.20;1.00
1429;DHT22;708;51.442;7.016;2023-05-10T08:24:50;19.30;1.00
1429;DHT22;708;51.442;7.016;2023-05-10T08:27:17;19.40;1.00
1429;DHT22;708;51.442;7.016;2023-05-10T08:29:44;19.40;1.00
1429;DHT22;708;51.442;7.016;2023-05-10T08:32:10;19.40;1.00
1429;DHT22;708;51.442;7.016;2023-05-10T08:34:37;19.40;1.00
1429;DHT22;708;51.442;7.016;2023-05-10T08:37:05;19.80;1.00
1429;DHT22;708;51.442;7.016;2023-05-10T08:39:34;20.40;99.90
1429;DHT22;708;51.442;7.016;2023-05-10T08:42:03;20.60;99.90
1429;DHT22;708;51.442;7.016;2023-05-10T08:44:32;20.80;99.90
1429;DHT22;708;51.442;7.016;2023-05-10T08:47:04;20.90;99.90
1429;DHT22;708;51.442;7.016;2023-05-10T08:49:31;21.00;99.90
1429;DHT22;708;51.442;7.016;2023-05-10T08:52:02;21.10;99.90
1429;DHT22;708;51.442;7.016;2023-05-10T08:54:31;21.10;99.90
1429;DHT22;708;51.442;7.016;2023-05-10T08:56:58;21.10;99.90
1429;DHT22;708;51.442;7.016;2023-05-10T08:59:25;21.10;80.90
1429;DHT22;708;51.442;7.016;2023-05-10T09:01:52;21.10;93.70
1429;DHT22;708;51.442;7.016;2023-05-10T09:04:21;21.00;33.50
1429;DHT22;708;51.442;7.016;2023-05-10T09:06:47;20.90;99.90
1429;DHT22;708;51.442;7.016;2023-05-10T09:09:14;20.80;99.90
1429;DHT22;708;51.442;7.016;2023-05-10T09:11:43;20.70;99.90
1429;DHT22;708;51.442;7.016;2023-05-10T09:14:11;20.70;99.90
1429;DHT22;708;51.442;7.016;2023-05-10T09:16:39;20.70;99.90
1429;DHT22;708;51.442;7.016;2023-05-10T09:19:06;21.00;99.90
1429;DHT22;708;51.442;7.016;2023-05-10T09:21:34;21.30;35.90
1429;DHT22;708;51.442;7.016;2023-05-10T09:24:03;21.60;1.00
1429;DHT22;708;51.442;7.016;2023-05-10T09:26:31;21.80;1.00
1429;DHT22;708;51.442;7.016;2023-05-10T09:29:00;21.90;99.90
1429;DHT22;708;51.442;7.016;2023-05-10T09:31:44;22.20;1.00
1429;DHT22;708;51.442;7.016;2023-05-10T09:34:14;22.50;1.00
1429;DHT22;708;51.442;7.016;2023-05-10T09:36:51;22.50;99.90
1429;DHT22;708;51.442;7.016;2023-05-10T09:39:17;22.30;1.00
1429;DHT22;708;51.442;7.016;2023-05-10T09:41:44;22.20;99.90
1429;DHT22;708;51.442;7.016;2023-05-10T09:44:16;22.50;99.90
1429;DHT22;708;51.442;7.016;2023-05-10T09:46:49;22.90;99.90
1429;DHT22;708;51.442;7.016;2023-05-10T09:49:16;22.90;99.90
1429;DHT22;708;51.442;7.016;2023-05-10T09:51:43;22.60;99.90
1429;DHT22;708;51.442;7.016;2023-05-10T09:54:11;22.20;99.90
1429;DHT22;708;51.442;7.016;2023-05-10T09:56:39;21.70;1.00
1429;DHT22;708;51.442;7.016;2023-05-10T09:59:08;21.40;99.90
1429;DHT22;708;51.442;7.016;2023-05-10T10:01:37;21.10;99.90
1429;DHT22;708;51.442;7.016;2023-05-10T10:04:05;21.20;99.90
1429;DHT22;708;51.442;7.016;2023-05-10T10:06:36;21.40;99.90
1429;DHT22;708;51.442;7.016;2023-05-10T10:09:04;21.60;38.30
1429;DHT22;708;51.442;7.016;2023-05-10T10:11:33;21.70;99.90
1429;DHT22;708;51.442;7.016;2023-05-10T10:14:00;22.00;99.90
1429;DHT22;708;51.442;7.016;2023-05-10T10:16:27;22.60;38.10
1429;DHT22;708;51.442;7.016;2023-05-10T10:18:57;23.00;1.00
1429;DHT22;708;51.442;7.016;2023-05-10T10:21:24;23.00;99.90
1429;DHT22;708;51.442;7.016;2023-05-10T10:23:51;22.90;99.90
1429;DHT22;708;51.442;7.016;2023-05-10T10:26:19;22.80;1.00
1429;DHT22;708;51.442;7.016;2023-05-10T10:28:51;22.90;99.90
1429;DHT22;708;51.442;7.016;2023-05-10T10:31:26;22.70;99.90
1429;DHT22;708;51.442;7.016;2023-05-10T10:34:05;22.40;99.90
1429;DHT22;708;51.442;7.016;2023-05-10T10:36:32;22.20;1.00
1429;DHT22;708;51.442;7.016;2023-05-10T10:39:08;22.10;99.90
1429;DHT22;708;51.442;7.016;2023-05-10T10:41:38;22.10;99.90
1429;DHT22;708;51.442;7.016;2023-05-10T10:44:35;22.10;99.90
1429;DHT22;708;51.442;7.016;2023-05-10T10:47:22;21.90;1.00
1429;DHT22;708;51.442;7.016;2023-05-10T10:50:02;21.70;99.90
1429;DHT22;708;51.442;7.016;2023-05-10T10:52:34;21.50;99.90
1429;DHT22;708;51.442;7.016;2023-05-10T10:55:03;21.10;1.00
1429;DHT22;708;51.442;7.016;2023-05-10T10:57:43;21.00;99.90
1429;DHT22;708;51.442;7.016;2023-05-10T11:00:24;20.90;99.90
1429;DHT22;708;51.442;7.016;2023-05-10T11:02:53;20.80;99.90
1429;DHT22;708;51.442;7.016;2023-05-10T11:05:40;20.80;1.00
1429;DHT22;708;51.442;7.016;2023-05-10T11:08:10;21.00;99.90
1429;DHT22;708;51.442;7.016;2023-05-10T11:10:37;21.20;1.00
1429;DHT22;708;51.442;7.016;2023-05-10T11:13:05;21.50;99.90
1429;DHT22;708;51.442;7.016;2023-05-10T11:15:33;21.70;1.00
1429;DHT22;708;51.442;7.016;2023-05-10T11:18:16;22.00;99.90
1429;DHT22;708;51.442;7.016;2023-05-10T11:20:50;22.10;99.90
1429;DHT22;708;51.442;7.016;2023-05-10T11:23:17;22.30;99.90
1429;DHT22;708;51.442;7.016;2023-05-10T11:25:46;22.50;1.00
1429;DHT22;708;51.442;7.016;2023-05-10T11:28:14;22.50;1.00
1429;DHT22;708;51.442;7.016;2023-05-10T11:30:43;22.50;99.90
1429;DHT22;708;51.442;7.016;2023-05-10T11:33:15;22.40;99.90
1429;DHT22;708;51.442;7.016;2023-05-10T11:35:42;22.30;99.90
1429;DHT22;708;51.442;7.016;2023-05-10T11:38:11;22.20;99.90
1429;DHT22;708;51.442;7.016;2023-05-10T11:40:39;21.90;99.90
1429;DHT22;708;51.442;7.016;2023-05-10T11:43:06;21.50;99.90
1429;DHT22;708;51.442;7.016;2023-05-10T11:48:02;20.70;1.00
1429;DHT22;708;51.442;7.016;2023-05-10T11:50:30;20.50;99.90
1429;DHT22;708;51.442;7.016;2023-05-10T11:52:57;20.40;1.00
1429;DHT22;708;51.442;7.016;2023-05-10T11:55:25;20.50;99.90
1429;DHT22;708;51.442;7.016;2023-05-10T11:57:53;20.60;99.90
1429;DHT22;708;51.442;7.016;2023-05-10T12:00:20;20.80;99.90
1429;DHT22;708;51.442;7.016;2023-05-10T12:02:47;21.00;42.10
1429;DHT22;708;51.442;7.016;2023-05-10T12:05:14;21.10;1.00
1429;DHT22;708;51.442;7.016;2023-05-10T12:07:41;21.20;1.00
1429;DHT22;708;51.442;7.016;2023-05-10T12:10:09;21.40;1.00
1429;DHT22;708;51.442;7.016;2023-05-10T12:12:42;21.60;1.00
1429;DHT22;708;51.442;7.016;2023-05-10T12:15:17;21.80;1.00
1429;DHT22;708;51.442;7.016;2023-05-10T12:17:44;22.00;99.90
1429;DHT22;708;51.442;7.016;2023-05-10T12:20:15;22.30;1.00
1429;DHT22;708;51.442;7.016;2023-05-10T12:22:44;22.50;99.90
1429;DHT22;708;51.442;7.016;2023-05-10T12:25:11;22.80;1.00
1429;DHT22;708;51.442;7.016;2023-05-10T12:27:38;22.90;99.90
1429;DHT22;708;51.442;7.016;2023-05-10T12:30:07;22.90;99.90
1429;DHT22;708;51.442;7.016;2023-05-10T12:32:38;22.90;99.90
1429;DHT22;708;51.442;7.016;2023-05-10T12:35:05;22.90;99.90
1429;DHT22;708;51.442;7.016;2023-05-10T12:37:32;22.90;99.90
1429;DHT22;708;51.442;7.016;2023-05-10T12:40:06;22.70;99.90
1429;DHT22;708;51.442;7.016;2023-05-10T12:42:33;22.60;99.90
1429;DHT22;708;51.442;7.016;2023-05-10T12:45:01;22.80;99.90
1429;DHT22;708;51.442;7.016;2023-05-10T12:47:32;22.90;24.00
1429;DHT22;708;51.442;7.016;2023-05-10T12:50:00;23.10;1.00
1429;DHT22;708;51.442;7.016;2023-05-10T12:52:28;23.20;1.00
1429;DHT22;708;51.442;7.016;2023-05-10T12:54:55;23.30;1.00
1429;DHT22;708;51.442;7.016;2023-05-10T12:57:22;23.40;1.00
1429;DHT22;708;51.442;7.016;2023-05-10T12:59:49;23.50;1.00
1429;DHT22;708;51.442;7.016;2023-05-10T13:02:16;23.70;99.90
1429;DHT22;708;51.442;7.016;2023-05-10T13:04:45;23.70;99.90
1429;DHT22;708;51.442;7.016;2023-05-10T13:07:12;23.90;99.90
1429;DHT22;708;51.442;7.016;2023-05-10T13:09:39;24.00;99.90
1429;DHT22;708;51.442;7.016;2023-05-10T13:12:06;24.10;99.90
1429;DHT22;708;51.442;7.016;2023-05-10T13:14:33;24.20;99.90
1429;DHT22;708;51.442;7.016;2023-05-10T13:17:00;24.40;99.90
1429;DHT22;708;51.442;7.016;2023-05-10T13:19:26;24.50;99.90
1429;DHT22;708;51.442;7.016;2023-05-10T13:21:54;24.60;99.90
1429;DHT22;708;51.442;7.016;2023-05-10T13:24:21;24.70;99.90
1429;DHT22;708;51.442;7.016;2023-05-10T13:26:48;24.80;99.90
1429;DHT22;708;51.442;7.016;2023-05-10T13:29:15;24.90;99.90
1429;DHT22;708;51.442;7.016;2023-05-10T13:31:43;24.70;99.90
1429;DHT22;708;51.442;7.016;2023-05-10T13:34:10;24.60;99.90
1429;DHT22;708;51.442;7.016;2023-05-10T13:36:37;24.60;99.90
1429;DHT22;708;51.442;7.016;2023-05-10T13:39:05;24.60;99.90
1429;DHT22;708;51.442;7.016;2023-05-10T13:41:32;24.70;99.90
1429;DHT22;708;51.442;7.016;2023-05-10T13:43:59;24.80;99.90
1429;DHT22;708;51.442;7.016;2023-05-10T13:46:26;24.80;99.90
1429;DHT22;708;51.442;7.016;2023-05-10T13:48:52;24.90;99.90
1429;DHT22;708;51.442;7.016;2023-05-10T13:51:19;24.80;99.90
1429;DHT22;708;51.442;7.016;2023-05-10T13:53:46;24.60;99.90
1429;DHT22;708;51.442;7.016;2023-05-10T13:56:14;24.60;99.90
1429;DHT22;708;51.442;7.016;2023-05-10T13:58:41;24.50;99.90
1429;DHT22;708;51.442;7.016;2023-05-10T14:01:08;24.40;99.90
1429;DHT22;708;51.442;7.016;2023-05-10T14:03:35;24.50;99.90
1429;DHT22;708;51.442;7.016;2023-05-10T14:06:02;24.50;99.90
1429;DHT22;708;51.442;7.016;2023-05-10T14:08:29;24.40;99.90
1429;DHT22;708;51.442;7.016;2023-05-10T14:10:56;24.20;99.90
1429;DHT22;708;51.442;7.016;2023-05-10T14:13:24;24.10;99.90
1429;DHT22;708;51.442;7.016;2023-05-10T14:15:53;24.00;99.90
1429;DHT22;708;51.442;7.016;2023-05-10T14:18:20;23.80;99.90
1429;DHT22;708;51.442;7.016;2023-05-10T14:20:47;23.60;99.90
1429;DHT22;708;51.442;7.016;2023-05-10T14:23:13;23.50;99.90
1429;DHT22;708;51.442;7.016;2023-05-10T14:25:40;23.50;99.90
1429;DHT22;708;51.442;7.016;2023-05-10T14:28:07;23.50;99.90
1429;DHT22;708;51.442;7.016;2023-05-10T14:30:35;23.50;99.90
1429;DHT22;708;51.442;7.016;2023-05-10T14:33:02;23.50;99.90
1429;DHT22;708;51.442;7.016;2023-05-10T14:35:29;23.50;99.90
1429;DHT22;708;51.442;7.016;2023-05-10T14:37:57;23.50;99.90
1429;DHT22;708;51.442;7.016;2023-05-10T14:40:24;23.60;99.90
1429;DHT22;708;51.442;7.016;2023-05-10T14:42:51;23.60;99.90
1429;DHT22;708;51.442;7.016;2023-05-10T14:45:18;23.70;99.90
1429;DHT22;708;51.442;7.016;2023-05-10T14:47:47;23.80;99.90
1429;DHT22;708;51.442;7.016;2023-05-10T14:50:13;23.90;99.90
1429;DHT22;708;51.442;7.016;2023-05-10T14:52:40;24.00;99.90
1429;DHT22;708;51.442;7.016;2023-05-10T14:55:08;23.90;99.90
1429;DHT22;708;51.442;7.016;2023-05-10T14:57:35;23.70;99.90
1429;DHT22;708;51.442;7.016;2023-05-10T15:00:02;23.50;99.90
1429;DHT22;708;51.442;7.016;2023-05-10T15:02:29;23.50;99.90
1429;DHT22;708;51.442;7.016;2023-05-10T15:04:57;23.40;99.90
1429;DHT22;708;51.442;7.016;2023-05-10T15:07:24;23.40;99.90
1429;DHT22;708;51.442;7.016;2023-05-10T15:09:51;23.40;99.90
1429;DHT22;708;51.442;7.016;2023-05-10T15:12:18;23.50;99.90
1429;DHT22;708;51.442;7.016;2023-05-10T15:14:45;23.40;99.90
1429;DHT22;708;51.442;7.016;2023-05-10T15:17:11;23.20;99.90
1429;DHT22;708;51.442;7.016;2023-05-10T15:19:38;23.00;99.90
1429;DHT22;708;51.442;7.016;2023-05-10T15:22:06;22.80;1.00
1429;DHT22;708;51.442;7.016;2023-05-10T15:24:33;22.60;1.00
1429;DHT22;708;51.442;7.016;2023-05-10T15:27:00;22.40;1.00
1429;DHT22;708;51.442;7.016;2023-05-10T15:29:27;22.30;1.00
1429;DHT22;708;51.442;7.016;2023-05-10T15:31:55;22.20;67.60
1429;DHT22;708;51.442;7.016;2023-05-10T15:34:21;22.20;99.90
1429;DHT22;708;51.442;7.016;2023-05-10T15:36:48;22.30;99.90
1429;DHT22;708;51.442;7.016;2023-05-10T15:39:16;22.40;1.00
1429;DHT22;708;51.442;7.016;2023-05-10T15:41:43;22.50;1.00
1429;DHT22;708;51.442;7.016;2023-05-10T15:44:10;22.60;1.00
1429;DHT22;708;51.442;7.016;2023-05-10T15:46:37;22.70;1.00
1429;DHT22;708;51.442;7.016;2023-05-10T15:49:04;22.70;1.00
1429;DHT22;708;51.442;7.016;2023-05-10T15:51:32;22.80;1.00
1429;DHT22;708;51.442;7.016;2023-05-10T15:53:59;22.80;1.00
1429;DHT22;708;51.442;7.016;2023-05-10T15:56:28;22.90;1.00
1429;DHT22;708;51.442;7.016;2023-05-10T15:58:55;22.80;1.00
1429;DHT22;708;51.442;7.016;2023-05-10T16:01:22;22.80;1.00
1429;DHT22;708;51.442;7.016;2023-05-10T16:03:48;22.60;1.00
1429;DHT22;708;51.442;7.016;2023-05-10T16:06:15;22.60;1.00
1429;DHT22;708;51.442;7.016;2023-05-10T16:08:42;22.50;8.80
1429;DHT22;708;51.442;7.016;2023-05-10T16:11:09;22.50;78.90
1429;DHT22;708;51.442;7.016;2023-05-10T16:13:37;22.50;99.90
1429;DHT22;708;51.442;7.016;2023-05-10T16:16:04;22.40;99.90
1429;DHT22;708;51.442;7.016;2023-05-10T16:18:33;22.20;99.90
1429;DHT22;708;51.442;7.016;2023-05-10T16:21:00;22.10;1.00
1429;DHT22;708;51.442;7.016;2023-05-10T16:23:27;22.00;1.00
1429;DHT22;708;51.442;7.016;2023-05-10T16:25:55;21.80;1.00
1429;DHT22;708;51.442;7.016;2023-05-10T16:28:21;21.60;1.00
1429;DHT22;708;51.442;7.016;2023-05-10T16:33:17;21.10;1.00
1429;DHT22;708;51.442;7.016;2023-05-10T16:35:44;20.80;99.90